sensor_id;sensor_type;location;lat;lon;timestamp;pressure;altitude;pressure_sealevel;temperature;humidity
48027;BME280;50714;49.208;5.364;2023-03-18T00:06:19;98867.13;;;11.47;88.84
48027;BME280;50714;49.208;5.364;2023-03-18T00:16:20;98864.19;;;11.49;88.49
48027;BME280;50714;49.208;5.364;2023-03-18T00:26:22;98858.25;;;11.40;87.38
48027;BME280;50714;49.208;5.364;2023-03-18T00:36:24;98866.50;;;11.27;86.55
48027;BME280;50714;49.208;5.364;2023-03-18T00:46:32;98865.78;;;11.13;85.83
48027;BME280;50714;49.208;5.364;2023-03-18T00:56:34;98867.19;;;10.98;85.55
48027;BME280;50714;49.208;5.364;2023-03-18T01:06:37;98860.72;;;10.80;85.45
48027;BME280;50714;49.208;5.364;2023-03-18T01:16:37;98861.63;;;10.68;85.77
48027;BME280;50714;49.208;5.364;2023-03-18T01:26:37;98860.41;;;10.64;85.57
48027;BME280;50714;49.208;5.364;2023-03-18T01:36:38;98866.09;;;10.55;85.34
48027;BME280;50714;49.208;5.364;2023-03-18T01:46:42;98859.91;;;10.48;84.93
48027;BME280;50714;49.208;5.364;2023-03-18T01:56:45;98872.81;;;10.40;84.17
48027;BME280;50714;49.208;5.364;2023-03-18T02:06:47;98871.91;;;10.21;84.55
48027;BME280;50714;49.208;5.364;2023-03-18T02:17:08;98860.72;;;10.11;85.93
48027;BME280;50714;49.208;5.364;2023-03-18T02:37:13;98865.22;;;9.85;84.39
48027;BME280;50714;49.208;5.364;2023-03-18T02:47:17;98870.47;;;9.67;84.59
48027;BME280;50714;49.208;5.364;2023-03-18T02:57:20;98877.97;;;9.45;85.09
48027;BME280;50714;49.208;5.364;2023-03-18T03:07:25;98884.78;;;9.54;85.93
48027;BME280;50714;49.208;5.364;2023-03-18T03:17:26;98904.28;;;9.56;85.50
48027;BME280;50714;49.208;5.364;2023-03-18T03:27:27;98902.63;;;9.55;85.54
48027;BME280;50714;49.208;5.364;2023-03-18T03:37:27;98912.97;;;9.52;85.35
48027;BME280;50714;49.208;5.364;2023-03-18T03:47:28;98910.91;;;9.54;85.22
48027;BME280;50714;49.208;5.364;2023-03-18T03:57:29;98913.38;;;9.55;85.26
48027;BME280;50714;49.208;5.364;2023-03-18T04:07:29;98911.97;;;9.40;85.18
48027;BME280;50714;49.208;5.364;2023-03-18T04:17:29;98923.59;;;9.40;84.47
48027;BME280;50714;49.208;5.364;2023-03-18T04:27:30;98934.16;;;9.42;83.68
48027;BME280;50714;49.208;5.364;2023-03-18T04:37:31;98932.09;;;9.17;83.66
48027;BME280;50714;49.208;5.364;2023-03-18T04:47:33;98922.34;;;9.03;83.85
48027;BME280;50714;49.208;5.364;2023-03-18T04:57:35;98931.28;;;8.91;83.53
48027;BME280;50714;49.208;5.364;2023-03-18T05:07:36;98928.56;;;8.84;83.56
48027;BME280;50714;49.208;5.364;2023-03-18T05:17:37;98925.47;;;8.80;83.48
48027;BME280;50714;49.208;5.364;2023-03-18T05:27:39;98927.53;;;8.85;83.79
48027;BME280;50714;49.208;5.364;2023-03-18T05:37:39;98929.41;;;8.91;82.48
48027;BME280;50714;49.208;5.364;2023-03-18T05:47:40;98926.94;;;8.89;82.20
48027;BME280;50714;49.208;5.364;2023-03-18T05:57:40;98931.25;;;8.84;82.16
48027;BME280;50714;49.208;5.364;2023-03-18T06:07:41;98945.34;;;8.86;82.01
48027;BME280;50714;49.208;5.364;2023-03-18T06:17:42;98957.75;;;8.80;82.50
48027;BME280;50714;49.208;5.364;2023-03-18T06:27:43;98958.56;;;8.81;82.34
48027;BME280;50714;49.208;5.364;2023-03-18T06:37:43;98950.91;;;8.65;82.42
48027;BME280;50714;49.208;5.364;2023-03-18T06:47:44;98965.16;;;8.59;83.58
48027;BME280;50714;49.208;5.364;2023-03-18T06:57:45;98962.31;;;8.73;84.14
48027;BME280;50714;49.208;5.364;2023-03-18T07:07:46;98977.84;;;9.04;83.79
48027;BME280;50714;49.208;5.364;2023-03-18T07:17:48;98975.34;;;9.49;83.43
48027;BME280;50714;49.208;5.364;2023-03-18T07:27:49;98986.59;;;10.68;82.90
48027;BME280;50714;49.208;5.364;2023-03-18T07:37:49;98993.78;;;12.72;77.68
48027;BME280;50714;49.208;5.364;2023-03-18T07:47:50;98994.25;;;13.87;72.43
48027;BME280;50714;49.208;5.364;2023-03-18T07:57:50;99008.06;;;13.85;69.38
48027;BME280;50714;49.208;5.364;2023-03-18T08:07:51;99007.28;;;15.05;66.80
48027;BME280;50714;49.208;5.364;2023-03-18T08:17:51;99009.66;;;14.73;64.33
48027;BME280;50714;49.208;5.364;2023-03-18T08:27:52;99020.78;;;14.72;63.54
48027;BME280;50714;49.208;5.364;2023-03-18T08:37:53;99035.94;;;17.76;63.34
48027;BME280;50714;49.208;5.364;2023-03-18T08:47:54;99035.81;;;17.07;56.89
48027;BME280;50714;49.208;5.364;2023-03-18T08:57:55;99020.16;;;15.10;59.17
48027;BME280;50714;49.208;5.364;2023-03-18T09:07:56;99035.03;;;19.22;59.45
48027;BME280;50714;49.208;5.364;2023-03-18T09:17:57;99025.09;;;20.58;53.98
48027;BME280;50714;49.208;5.364;2023-03-18T09:27:58;99038.97;;;19.82;51.97
48027;BME280;50714;49.208;5.364;2023-03-18T09:37:59;99052.19;;;17.34;54.03
48027;BME280;50714;49.208;5.364;2023-03-18T09:58:58;99051.50;;;16.29;53.81
48027;BME280;50714;49.208;5.364;2023-03-18T10:09:03;99044.22;;;16.79;56.74
48027;BME280;50714;49.208;5.364;2023-03-18T10:19:07;99062.91;;;20.71;53.88
48027;BME280;50714;49.208;5.364;2023-03-18T10:39:30;99060.19;;;17.72;51.34
48027;BME280;50714;49.208;5.364;2023-03-18T10:49:33;99069.41;;;18.35;54.44
48027;BME280;50714;49.208;5.364;2023-03-18T10:59:36;99071.81;;;18.27;51.24
48027;BME280;50714;49.208;5.364;2023-03-18T11:09:37;99061.91;;;16.98;52.81
48027;BME280;50714;49.208;5.364;2023-03-18T11:19:46;99043.19;;;16.41;53.63
48027;BME280;50714;49.208;5.364;2023-03-18T11:30:03;99047.13;;;16.28;54.64
48027;BME280;50714;49.208;5.364;2023-03-18T11:50:19;99030.88;;;21.89;54.19
48027;BME280;50714;49.208;5.364;2023-03-18T12:00:34;99023.63;;;26.50;44.04
48027;BME280;50714;49.208;5.364;2023-03-18T12:10:40;99014.31;;;28.24;41.25
48027;BME280;50714;49.208;5.364;2023-03-18T12:20:54;98999.94;;;28.30;41.54
48027;BME280;50714;49.208;5.364;2023-03-18T12:41:39;98985.94;;;24.02;37.77
48027;BME280;50714;49.208;5.364;2023-03-18T12:51:49;98982.38;;;21.74;43.10
48027;BME280;50714;49.208;5.364;2023-03-18T13:12:21;98984.72;;;19.49;46.46
48027;BME280;50714;49.208;5.364;2023-03-18T13:43:28;98950.72;;;18.79;47.72
48027;BME280;50714;49.208;5.364;2023-03-18T13:53:39;98946.06;;;18.74;47.80
48027;BME280;50714;49.208;5.364;2023-03-18T14:13:49;98954.97;;;18.49;49.11
48027;BME280;50714;49.208;5.364;2023-03-18T14:24:10;98942.41;;;18.48;49.22
48027;BME280;50714;49.208;5.364;2023-03-18T14:44:23;98936.94;;;17.86;50.21
48027;BME280;50714;49.208;5.364;2023-03-18T14:54:29;98930.34;;;17.82;50.07
48027;BME280;50714;49.208;5.364;2023-03-18T15:04:32;98925.06;;;17.65;51.08
48027;BME280;50714;49.208;5.364;2023-03-18T15:14:33;98909.13;;;17.52;51.11
48027;BME280;50714;49.208;5.364;2023-03-18T15:24:34;98904.03;;;17.28;50.46
48027;BME280;50714;49.208;5.364;2023-03-18T15:34:36;98905.63;;;17.24;51.58
48027;BME280;50714;49.208;5.364;2023-03-18T15:44:38;98910.56;;;17.27;51.97
48027;BME280;50714;49.208;5.364;2023-03-18T15:54:39;98910.00;;;17.25;51.84
48027;BME280;50714;49.208;5.364;2023-03-18T16:04:39;98908.94;;;17.26;51.97
48027;BME280;50714;49.208;5.364;2023-03-18T16:14:45;98903.94;;;17.13;51.87
48027;BME280;50714;49.208;5.364;2023-03-18T16:24:46;98908.19;;;16.72;52.15
48027;BME280;50714;49.208;5.364;2023-03-18T16:34:47;98899.25;;;16.55;52.99
48027;BME280;50714;49.208;5.364;2023-03-18T16:44:47;98895.72;;;16.27;53.45
48027;BME280;50714;49.208;5.364;2023-03-18T16:54:48;98909.75;;;16.19;53.97
48027;BME280;50714;49.208;5.364;2023-03-18T17:04:48;98908.19;;;15.80;54.71
48027;BME280;50714;49.208;5.364;2023-03-18T17:14:53;98921.38;;;15.71;55.59
48027;BME280;50714;49.208;5.364;2023-03-18T17:24:55;98928.06;;;15.47;55.61
48027;BME280;50714;49.208;5.364;2023-03-18T17:34:56;98937.19;;;15.41;56.18
48027;BME280;50714;49.208;5.364;2023-03-18T17:45:01;98938.47;;;15.33;56.63
48027;BME280;50714;49.208;5.364;2023-03-18T17:55:15;98941.75;;;15.18;57.51
48027;BME280;50714;49.208;5.364;2023-03-18T18:05:20;98947.81;;;14.92;57.22
48027;BME280;50714;49.208;5.364;2023-03-18T18:15:23;98955.22;;;14.40;58.31
48027;BME280;50714;49.208;5.364;2023-03-18T18:25:26;98955.97;;;14.23;58.87
48027;BME280;50714;49.208;5.364;2023-03-18T18:35:28;98962.38;;;14.06;59.54
48027;BME280;50714;49.208;5.364;2023-03-18T18:45:29;98971.38;;;13.83;60.26
48027;BME280;50714;49.208;5.364;2023-03-18T18:55:29;98969.84;;;13.63;60.93
48027;BME280;50714;49.208;5.364;2023-03-18T19:05:30;98971.38;;;13.48;61.74
48027;BME280;50714;49.208;5.364;2023-03-18T19:15:31;98980.81;;;13.45;62.28
48027;BME280;50714;49.208;5.364;2023-03-18T19:25:34;98988.59;;;13.42;62.39
48027;BME280;50714;49.208;5.364;2023-03-18T19:35:35;99007.56;;;13.42;62.70
48027;BME280;50714;49.208;5.364;2023-03-18T19:45:35;99022.63;;;13.38;62.82
48027;BME280;50714;49.208;5.364;2023-03-18T19:55:35;99021.53;;;13.27;63.89
48027;BME280;50714;49.208;5.364;2023-03-18T20:05:36;99030.25;;;13.29;64.18
48027;BME280;50714;49.208;5.364;2023-03-18T20:15:36;99031.09;;;13.29;64.79
48027;BME280;50714;49.208;5.364;2023-03-18T20:25:39;99043.34;;;13.32;64.75
48027;BME280;50714;49.208;5.364;2023-03-18T20:35:43;99051.50;;;13.32;65.07
48027;BME280;50714;49.208;5.364;2023-03-18T20:45:44;99049.69;;;13.26;64.88
48027;BME280;50714;49.208;5.364;2023-03-18T20:55:47;99054.50;;;13.24;64.67
48027;BME280;50714;49.208;5.364;2023-03-18T21:05:49;99065.47;;;13.17;64.94
48027;BME280;50714;49.208;5.364;2023-03-18T21:15:50;99081.75;;;12.99;65.12
48027;BME280;50714;49.208;5.364;2023-03-18T21:25:52;99092.16;;;12.84;65.21
48027;BME280;50714;49.208;5.364;2023-03-18T21:35:54;99089.31;;;12.60;65.19
48027;BME280;50714;49.208;5.364;2023-03-18T21:45:58;99088.16;;;12.32;65.88
48027;BME280;50714;49.208;5.364;2023-03-18T21:55:59;99094.53;;;12.01;66.46
48027;BME280;50714;49.208;5.364;2023-03-18T22:05:59;99099.69;;;11.52;68.27
48027;BME280;50714;49.208;5.364;2023-03-18T22:16:00;99085.50;;;11.32;69.46
48027;BME280;50714;49.208;5.364;2023-03-18T22:26:00;99081.59;;;11.21;69.68
48027;BME280;50714;49.208;5.364;2023-03-18T22:36:00;99079.06;;;10.88;69.88
48027;BME280;50714;49.208;5.364;2023-03-18T22:46:04;99093.03;;;10.79;69.64
48027;BME280;50714;49.208;5.364;2023-03-18T22:56:15;99097.44;;;10.73;71.45
48027;BME280;50714;49.208;5.364;2023-03-18T23:06:19;99107.88;;;10.56;70.73
48027;BME280;50714;49.208;5.364;2023-03-18T23:16:21;99114.53;;;10.54;70.95
48027;BME280;50714;49.208;5.364;2023-03-18T23:26:22;99114.13;;;10.44;71.82
48027;BME280;50714;49.208;5.364;2023-03-18T23:36:22;99125.94;;;10.43;72.03
48027;BME280;50714;49.208;5.364;2023-03-18T23:46:23;99126.41;;;10.27;72.88
48027;BME280;50714;49.208;5.364;2023-03-18T23:56:23;99135.75;;;9.98;73.54
